This is the latest recevied weather packets stored in our database for station/object CT1ETE. If no packets are shown the sender has not sent any weather packets the latest 10 day(s).
| Time | Temp. | Humidity | Pressure | Rain* | Wind** | Luminosity | Snow |
|---|---|---|---|---|---|---|---|
| 1777953481 | 9.44° C | 86% | 1016 hPa | 0 mm | - | - | - |
| 1777948555 | 10° C | 86% | 1016.1 hPa | 0 mm | - | - | - |
| 1777942245 | 10° C | 86% | 1016.6 hPa | 0 mm | - | - | - |
| 1777939538 | 10° C | 86% | 1016.7 hPa | 0 mm | - | - | - |
| 1777932330 | 11.11° C | 82% | 1016.8 hPa | 0 mm | - | - | - |
| 1777916526 | 14.44° C | 63% | 1015.7 hPa | 0 mm | - | - | - |
| 1777915222 | 15° C | 63% | 1015.6 hPa | 0 mm | - | - | - |
| 1777913420 | 14.44° C | 64% | 1015.6 hPa | 0 mm | - | - | - |
| 1777898111 | 15.56° C | 61% | 1015.8 hPa | 0 mm | - | - | - |
| 1777893612 | 16.67° C | 57% | 1015.8 hPa | 0 mm | - | - | - |
| 1777884602 | 13.33° C | 82% | 1015.8 hPa | 0 mm | - | - | - |
| 1777879195 | 11.67° C | 85% | 1015 hPa | 0 mm | - | - | - |
| 1777870184 | 10.56° C | 83% | 1014.1 hPa | 0 mm | - | - | - |
| 1777869285 | 10.56° C | 84% | 1014.1 hPa | 0 mm | - | - | - |
| 1777864779 | 10° C | 85% | 1014.1 hPa | 0 mm | - | - | - |
| 1777862976 | 10.56° C | 85% | 1014.1 hPa | 0 mm | - | - | - |
| 1777858472 | 10.56° C | 86% | 1014.2 hPa | 0 mm | - | - | - |
| 1777857597 | 10.56° C | 86% | 1014.4 hPa | 0 mm | - | - | - |
| 1777851676 | 11.11° C | 86% | 1014.6 hPa | 0 mm | - | - | - |
| 1777844954 | 11.11° C | 86% | 1014.7 hPa | 0 mm | - | - | - |
| 1777841351 | 11.67° C | 85% | 1014.2 hPa | 0 mm | - | - | - |
| 1777837747 | 12.22° C | 82% | 1013.5 hPa | 0 mm | - | - | - |
| 1777834146 | 13.89° C | 76% | 1012.9 hPa | 0 mm | - | - | - |
| 1777833246 | 14.44° C | 73% | 1012.7 hPa | 0 mm | - | - | - |
| 1777827841 | 16.67° C | 70% | 1012.6 hPa | 0 mm | - | - | - |
* Rain latest hour (hover to see other rain measurements)
** Current wind speed in m/s (hover to see current wind gust speed)